• Join FlightAware (Why Join?)
  • Login
  • US Flag 
04:09PM EDT


 

Airport Tracker/Info


-or-


 

Live Flight TrackerFlight Track Log ✈ N726BC ✈ 29-Jun-2013 ✈ KIAG - KFRG

Flight Track Log - Related Links

Times and Time Zones

All times are in EDT time to prevent confusion due to time zone crossing. See the N726BC flight status page for this flight to view local times or setup timezone preferences in your user account.

Time Position Orientation Groundspeed Altitude Reporting Facility
EDT Latitude Longitude Course Direction KTS MPH feet Rate Location/Type
04:37PM 43.1000 -78.9500 216° Southwest 100 115 800  Level Buffalo TRACON
04:38PM 43.0667 -78.9833 216° Southwest 100 115 1,500 660 Climbing Buffalo TRACON
04:39PM 43.0500 -79.0000 216° Southwest 123 142 2,300 660 Climbing Buffalo TRACON
04:40PM 43.0333 -78.9667 124° Southeast 124 143 2,900 540 Climbing Buffalo TRACON
04:41PM 43.0167 -78.9167 114° Southeast 128 147 3,500 600 Climbing Buffalo TRACON
04:42PM 43.0000 -78.8667 114° Southeast 127 146 4,200 600 Climbing Buffalo TRACON
04:43PM 42.9833 -78.8333 124° Southeast 124 143 4,800 540 Climbing Buffalo TRACON
04:44PM 42.9833 -78.7833 90° East 124 143 5,300 480 Climbing Buffalo TRACON
04:45PM 42.9667 -78.7500 124° Southeast 127 146 5,700 480 Climbing Buffalo TRACON
04:46PM 42.9500 -78.7000 114° Southeast 126 145 6,300 480 Climbing Buffalo TRACON
04:47PM 42.9333 -78.6667 124° Southeast 124 143 6,800 300 Climbing Buffalo TRACON
04:48PM 42.9167 -78.6167 114° Southeast 141 162 6,900  Climbing Buffalo TRACON
04:49PM 42.9000 -78.5667 114° Southeast 161 185 6,900  Level Buffalo TRACON
04:50PM 42.8833 -78.5000 109° East 161 185 6,900  Level Buffalo TRACON
04:51PM 42.8617 -78.4617 128° Southeast 161 185 6,900  Level Cleveland Center
04:52PM 42.8375 -78.3944 116° Southeast 163 188 6,900  Level Cleveland Center
04:53PM 42.8178 -78.3386 116° Southeast 162 186 6,900  Level Cleveland Center
04:54PM 42.7978 -78.2772 114° Southeast 162 186 6,900  Level Cleveland Center
04:55PM 42.7781 -78.2242 117° Southeast 160 184 6,900  Level Cleveland Center
04:56PM 42.7581 -78.1711 117° Southeast 157 181 6,900  Level Cleveland Center
04:57PM 42.7403 -78.1153 113° Southeast 156 180 6,900  Level Cleveland Center
04:58PM 42.7225 -78.0622 115° Southeast 161 185 6,900  Level Cleveland Center
04:59PM 42.7025 -78.0094 117° Southeast 156 180 6,900  Level Cleveland Center
05:00PM 42.6844 -77.9536 114° Southeast 156 180 6,900  Level Cleveland Center
05:01PM 42.6667 -77.8950 112° Southeast 155 178 6,900  Level Cleveland Center
05:02PM 42.6444 -77.8453 121° Southeast 154 177 6,900  Level Cleveland Center
05:03PM 42.6286 -77.7894 111° Southeast 161 185 6,900  Level Cleveland Center
05:04PM 42.6106 -77.7367 115° Southeast 154 177 6,900  Level Cleveland Center
05:05PM 42.5906 -77.6867 119° Southeast 153 176 6,900  Level Cleveland Center
05:06PM 42.5725 -77.6311 114° Southeast 157 181 6,900  Level Cleveland Center
05:07PM 42.5522 -77.5758 116° Southeast 158 182 6,900  Level Cleveland Center
05:08PM 42.5367 -77.5314 115° Southeast 152 175 6,900  Level Cleveland Center
05:09PM 42.5164 -77.4789 118° Southeast 155 178 6,900  Level Cleveland Center
05:10PM 42.4961 -77.4178 114° Southeast 160 184 6,900  Level Cleveland Center
05:11PM 42.4758 -77.3653 118° Southeast 156 180 6,900  Level Cleveland Center
05:13PM 42.4459 -77.2931 117° Southeast  Level Estimated
05:20PM 42.3312 -76.9202 112° Southeast  Level FlightAware Approximate
05:21PM 42.3147 -76.8670 113° Southeast  Level FlightAware Approximate
05:22PM 42.2982 -76.8139 113° Southeast  Level FlightAware Approximate
05:23PM 42.2817 -76.7608 113° Southeast  Level FlightAware Approximate
05:24PM 42.2651 -76.7077 113° Southeast  Level FlightAware Approximate
05:25PM 42.2486 -76.6547 113° Southeast  Level FlightAware Approximate
05:26PM 42.2319 -76.6017 113° Southeast  Level FlightAware Approximate
05:27PM 42.2153 -76.5487 113° Southeast  Level FlightAware Approximate
05:28PM 42.1973 -76.4930 117° Southeast  Level FlightAware Approximate
05:29PM 42.1777 -76.4420 117° Southeast  Level FlightAware Approximate
05:30PM 42.1581 -76.3909 117° Southeast  Level FlightAware Approximate
05:31PM 42.1384 -76.3399 117° Southeast  Level FlightAware Approximate
05:32PM 42.1188 -76.2890 117° Southeast  Level FlightAware Approximate
05:33PM 42.0990 -76.2380 118° Southeast  Level FlightAware Approximate
05:34PM 42.0793 -76.1871 118° Southeast  Level FlightAware Approximate
05:35PM 42.0596 -76.1362 118° Southeast  Level FlightAware Approximate
05:36PM 42.0398 -76.0854 118° Southeast  Level FlightAware Approximate
05:37PM 42.0486 -76.0310 78° East  Level FlightAware Approximate
05:38PM 42.0574 -75.9766 78° East  Level FlightAware Approximate
05:39PM 42.0661 -75.9222 78° East  Level FlightAware Approximate
05:39PM 42.1453 -75.8397 78° East 167 192 6,900  Level Boston Center
05:40PM 42.0748 -75.8677 78° East  Level FlightAware Approximate
05:40PM 42.1469 -75.7753 88° East 185 213 6,900  Level Boston Center
05:41PM 42.1489 -75.7111 88° East 176 203 6,900  Level Boston Center
05:41PM 42.0835 -75.8133 78° East  Level FlightAware Approximate
05:42PM 42.1508 -75.6467 88° East 171 197 6,900  Level Boston Center
05:42PM 42.0922 -75.7588 78° East  Level FlightAware Approximate
05:43PM 42.1008 -75.7043 78° East  Level FlightAware Approximate
05:43PM 42.1547 -75.5853 85° East 171 197 6,900  Level Boston Center
05:44PM 42.1542 -75.5208 91° East 166 191 6,900  Level Boston Center
05:44PM 42.1095 -75.6498 78° East  Level FlightAware Approximate
05:45PM 42.1608 -75.4342 84° East 166 191 6,900  Level Boston Center
05:46PM 42.1625 -75.3700 88° East 161 185 6,900  Level Boston Center
05:47PM 42.1661 -75.3058 86° East 161 185 6,900  Level Boston Center
05:48PM 42.1678 -75.2414 88° East 161 185 6,900  Level Boston Center
05:49PM 42.1714 -75.1797 85° East 161 185 6,900  Level Boston Center
05:50PM 42.1750 -75.1128 86° East 161 185 6,900  Level Boston Center
05:51PM 42.1764 -75.0511 88° East 166 191 6,900  Level Boston Center
05:52PM 42.1778 -74.9897 88° East 160 184 6,900  Level Boston Center
05:53PM 42.1747 -74.9392 95° East 160 184 6,900  Level Boston Center
05:54PM 42.1553 -74.8794 114° Southeast 160 184 6,900  Level Boston Center
05:55PM 42.1400 -74.8200 109° East 160 184 6,900  Level Boston Center
05:56PM 42.1222 -74.7661 114° Southeast 154 177 6,900  Level Boston Center
05:57PM 42.1047 -74.7067 112° Southeast 159 183 6,900  Level Boston Center
05:58PM 42.0892 -74.6503 110° East 164 189 6,900  Level Boston Center
05:59PM 42.0714 -74.5964 114° Southeast 164 189 6,900  Level Boston Center
06:00PM 42.0536 -74.5400 113° Southeast 159 183 6,900  Level Boston Center
06:01PM 42.0400 -74.4892 110° East 153 176 6,900  Level Boston Center
06:02PM 42.0264 -74.4439 112° Southeast 153 176 6,900  Level Boston Center
06:03PM 42.0067 -74.3819 113° Southeast 153 176 6,900  Level Boston Center
06:04PM 41.9889 -74.3228 112° Southeast 158 182 6,900  Level Boston Center
06:05PM 41.9731 -74.2664 111° Southeast 158 182 6,900  Level Boston Center
06:06PM 41.9531 -74.2072 114° Southeast 158 182 6,900  Level Boston Center
06:07PM 41.9372 -74.1508 111° Southeast 158 182 6,900  Level Boston Center
06:08PM 41.9150 -74.1000 120° Southeast 158 182 6,900  Level Boston Center
06:09PM 41.8886 -74.0547 128° Southeast 153 176 6,900 -300 Level Boston Center
06:10PM 41.8458 -73.9867 130° Southeast 159 183 6,200 -480 Descending Boston Center
06:11PM 41.8194 -73.9444 130° Southeast 159 183 5,900 -180 Descending Boston Center
06:13PM 41.7847 -73.8850 128° Southeast 159 183 5,900  Level Boston Center
06:14PM 41.7603 -73.8456 130° Southeast 159 183 5,900  Level Boston Center
06:15PM 41.7294 -73.7975 131° Southeast 154 177 5,900  Level Boston Center
06:16PM 41.7050 -73.7608 132° Southeast 154 177 5,900  Level Boston Center
06:17PM 41.6764 -73.7103 127° Southeast 154 177 5,900  Level Boston Center
06:18PM 41.6517 -73.6708 130° Southeast 154 177 5,900  Level Boston Center
06:19PM 41.6189 -73.6175 129° Southeast 159 183 5,900  Level Boston Center
06:20PM 41.5667 -73.5333 130° Southeast 155 178 5,900  Level New York TRACON
06:21PM 41.5500 -73.5000 124° Southeast 159 183 5,900  Level New York TRACON
06:22PM 41.5167 -73.4667 143° Southeast 148 170 5,900  Level New York TRACON
06:23PM 41.4833 -73.4333 143° Southeast 151 174 5,900  Level New York TRACON
06:24PM 41.4500 -73.4000 143° Southeast 154 177 6,000 -60 Climbing New York TRACON
06:25PM 41.4167 -73.3667 143° Southeast 147 169 5,800 -240 Descending New York TRACON
06:26PM 41.3667 -73.3333 153° Southeast 160 184 5,600 -420 Descending New York TRACON
06:27PM 41.3333 -73.3167 159° South 165 190 5,000 -600 Descending New York TRACON
06:28PM 41.2833 -73.3000 166° South 163 188 4,400 -600 Descending New York TRACON
06:29PM 41.2500 -73.2667 143° Southeast 164 189 3,900 -420 Descending New York TRACON
06:30PM 41.2000 -73.2667 180° South 155 178 3,600 -420 Descending New York TRACON
06:31PM 41.1667 -73.2667 180° South 155 178 3,100 -300 Descending New York TRACON
06:32PM 41.1167 -73.2667 180° South 148 170 3,000 -60 Descending New York TRACON
06:33PM 41.0833 -73.2667 180° South 136 157 3,000 -60 Level New York TRACON
06:34PM 41.0500 -73.2833 201° Southwest 135 155 2,900  Descending New York TRACON
06:35PM 41.0167 -73.3000 201° Southwest 127 146 3,000  Climbing New York TRACON
06:36PM 40.9833 -73.3333 217° Southwest 128 147 2,900 -360 Descending New York TRACON
06:37PM 40.9667 -73.3667 236° Southwest 144 166 2,400 -540 Descending New York TRACON
06:38PM 40.9333 -73.4000 217° Southwest 147 169 1,900 -300 Descending New York TRACON
06:39PM 40.9000 -73.4167 201° Southwest 136 157 1,900 -60 Level New York TRACON
06:40PM 40.8667 -73.4167 180° South 123 142 1,800  Descending New York TRACON
06:41PM 40.8333 -73.4167 180° South 110 127 1,900 -180 Climbing New York TRACON
06:42PM 40.8000 -73.4167 180° South 89 102 1,500 -540 Descending New York TRACON
06:43PM 40.7833 -73.4167 180° South 93 107 900 -480 Descending New York TRACON
06:44PM 40.7500 -73.4167 180° South 82 94 600 -300 Descending New York TRACON
06:46PM 40.7288 -73.4134 229° Southwest  Level Estimated
06:53PM 40.7288 -73.4134 229° Southwest  Level Estimated
06:54PM 40.7288 -73.4134 229° Southwest  Level Estimated